Main page
METAR-TAF:

METAR-TAF

Airports :

Sulaimaniyah International Airport

Sulaymaniyah, Iraq

latitude: 35-33-39N, longitude: 45-18-52E, elevation: 760 m

Current weather observation

The report was made 57 minutes ago, at 07:00 UTC
Wind 2 kt from variable directions
Temperature 18°C
Humidity 88%
Pressure 1015 hPa
Visibility 10 km or more
Overcast at a height of 7000 ft

METAR: ORSU 220700Z VRB02KT 9999 KBN040 OVC070 18/16 Q1015

Time: 10:57 (07:57 UTC)

Forecast

The report was made 2 hours and 57 minutes ago, at 05:00 UTC
Forecast valid from 22 at 06 UTC to 23 at 06 UTC
Wind 10 kt from the East/Northeast
Visibility 10 km or more
Broken clouds at a height of 4000 ft
Temporary
from 22 at 08 UTC to 22 at 12 UTC
Scattered clouds at a height of 3500 ft, Cumulonimbus.
thunderstorm, light rain
Temporary
from 22 at 15 UTC to 22 at 18 UTC
Few clouds at a height of 3500 ft, Cumulonimbus.
thunderstorm, light rain,

TAF: ORSU 220500Z 2206/2306 06010KT 9999 BKN040 TEMPO 2208/2212 -TSRA SCT035CB TEMPO 2215/2218 -TSRA FEW035CB

Weather observations and forecasts of more than 4000 airports (METAR and TAF reports).

The available stations are represented by yellow and red dots on the map.

Hover mouse over dot to see the name of the station.

Then click to see weather observations and forecasts.

To change the map : click on the green buttons with a black cross to zoom in, on the green button with a dash to zoom out, or on the green arrows for adjacent maps.


METAR-TAF: